Time;durP1;ratioP1;P1;durP2;ratioP2;P2;SDS_P1;SDS_P2;PMS_P1;PMS_P2;Temp;Humidity;BMP_temperature;BMP_pressure;BME280_temperature;BME280_humidity;BME280_pressure;Samples;Min_cycle;Max_cycle;Signal;HPM_P1;HPM_P2
2021/12/22 00:01:26;;;;;;;28.85;15.35;;;-1.30;99.90;;;;;;5087385;28;20035;-75
2021/12/22 00:03:53;;;;;;;32.58;14.85;;;-1.20;99.90;;;;;;5081654;28;20832;-76
2021/12/22 00:06:22;;;;;;;26.73;13.95;;;-1.20;99.90;;;;;;5086907;28;20082;-75
2021/12/22 00:08:48;;;;;;;31.40;14.65;;;-1.20;99.90;;;;;;5087716;28;20501;-75
2021/12/22 00:11:15;;;;;;;31.88;15.13;;;-1.20;99.90;;;;;;5086485;28;20073;-75
2021/12/22 00:13:41;;;;;;;30.60;12.77;;;-1.30;99.90;;;;;;5088699;28;20071;-75
2021/12/22 00:16:07;;;;;;;24.88;14.50;;;-1.30;99.90;;;;;;5070658;28;20071;-75
2021/12/22 00:18:33;;;;;;;22.55;11.27;;;-1.30;99.90;;;;;;5085545;28;20401;-75
2021/12/22 00:20:59;;;;;;;22.40;11.75;;;-1.30;99.90;;;;;;5098130;28;20052;-75
2021/12/22 00:23:24;;;;;;;19.92;11.68;;;-1.30;99.90;;;;;;5088408;28;20115;-75
2021/12/22 00:25:50;;;;;;;19.42;11.32;;;-1.30;99.90;;;;;;5067609;28;20314;-75
2021/12/22 00:28:16;;;;;;;17.33;10.48;;;-1.40;99.90;;;;;;5085906;28;20028;-75
2021/12/22 00:30:41;;;;;;;22.88;10.77;;;-1.40;99.90;;;;;;5071529;28;20040;-75
2021/12/22 00:33:10;;;;;;;17.85;10.88;;;-1.40;99.90;;;;;;5088468;28;20413;-75
2021/12/22 00:35:42;;;;;;;18.85;9.35;;;-1.40;99.90;;;;;;5104266;28;20040;-75
2021/12/22 00:38:10;;;;;;;19.73;10.40;;;-1.40;99.90;;;;;;5088214;28;20528;-75
2021/12/22 00:40:36;;;;;;;18.02;9.68;;;-1.40;99.90;;;;;;5069557;28;20081;-75
2021/12/22 00:43:02;;;;;;;18.08;9.95;;;-1.50;99.90;;;;;;5087879;28;20043;-75
2021/12/22 00:45:30;;;;;;;18.48;9.98;;;-1.50;99.90;;;;;;5088507;28;20028;-75
2021/12/22 00:47:56;;;;;;;22.10;10.63;;;-1.50;99.90;;;;;;5087297;28;20500;-75
2021/12/22 00:50:22;;;;;;;15.10;9.55;;;-1.50;99.90;;;;;;5071575;28;20044;-75
2021/12/22 00:52:49;;;;;;;20.77;11.10;;;-1.50;99.90;;;;;;5101461;28;20043;-74
2021/12/22 00:55:18;;;;;;;18.48;10.77;;;-1.50;99.90;;;;;;5087256;28;20040;-75
2021/12/22 00:57:44;;;;;;;19.20;10.43;;;-1.50;99.90;;;;;;5088470;28;20471;-75
2021/12/22 01:00:11;;;;;;;18.48;10.07;;;-1.50;99.90;;;;;;5104676;28;20050;-74
2021/12/22 01:02:37;;;;;;;17.92;10.38;;;-1.50;99.90;;;;;;5071201;28;20032;-75
2021/12/22 01:05:03;;;;;;;16.67;10.07;;;-1.50;99.90;;;;;;5086317;28;20035;-75
2021/12/22 01:07:29;;;;;;;26.15;11.93;;;-1.50;99.90;;;;;;5071530;28;20081;-75
2021/12/22 01:09:54;;;;;;;18.10;10.32;;;-1.50;99.90;;;;;;5058905;28;20035;-75
2021/12/22 01:12:20;;;;;;;20.17;9.77;;;-1.50;99.90;;;;;;5071375;28;20044;-74
2021/12/22 01:14:46;;;;;;;20.10;10.88;;;-1.50;99.90;;;;;;5103975;28;20036;-75
2021/12/22 01:17:14;;;;;;;15.75;9.50;;;-1.50;99.90;;;;;;5087540;28;20079;-75
2021/12/22 01:22:24;;;;;;;16.48;9.23;;;-1.50;99.90;;;;;;5087060;28;20097;-75
2021/12/22 01:24:59;;;;;;;18.48;10.70;;;-1.60;99.90;;;;;;5076671;28;20051;-75
2021/12/22 01:27:35;;;;;;;19.83;10.38;;;-1.60;99.90;;;;;;5070792;28;20541;-75
2021/12/22 01:30:10;;;;;;;20.67;11.20;;;-1.60;99.90;;;;;;5104042;28;20043;-74
2021/12/22 01:32:36;;;;;;;16.33;10.20;;;-1.60;99.90;;;;;;5069845;28;20426;-75
2021/12/22 01:35:04;;;;;;;18.55;10.02;;;-1.60;99.90;;;;;;5082515;28;20040;-75
2021/12/22 01:37:30;;;;;;;16.73;10.18;;;-1.70;99.90;;;;;;5098086;28;20490;-75
2021/12/22 01:39:56;;;;;;;17.98;9.98;;;-1.70;99.90;;;;;;5069989;28;20039;-75
2021/12/22 01:42:21;;;;;;;17.17;9.82;;;-1.70;99.90;;;;;;5087112;28;20524;-75
2021/12/22 01:50:36;;;;;;;19.58;9.75;;;-1.70;99.90;;;;;;5104666;28;20052;-75
2021/12/22 01:53:07;;;;;;;15.70;9.52;;;-1.70;99.90;;;;;;5070370;28;20439;-75
2021/12/22 01:55:37;;;;;;;19.73;9.52;;;-1.70;99.90;;;;;;5067990;28;20051;-75
2021/12/22 01:58:06;;;;;;;20.33;9.90;;;-1.70;99.90;;;;;;5102636;28;20138;-75
2021/12/22 02:00:32;;;;;;;18.55;10.00;;;-1.80;99.90;;;;;;5066746;28;20037;-75
2021/12/22 02:02:58;;;;;;;16.88;9.20;;;-1.80;99.90;;;;;;5087641;28;20069;-75
2021/12/22 02:05:24;;;;;;;17.17;10.32;;;-1.80;99.90;;;;;;5086871;28;20039;-75
2021/12/22 02:07:55;;;;;;;20.00;9.90;;;-1.80;99.90;;;;;;5070861;28;20105;-75
2021/12/22 02:10:35;;;;;;;22.25;11.43;;;-1.80;99.90;;;;;;5096243;28;20452;-75
2021/12/22 02:13:02;;;;;;;21.75;10.48;;;-1.80;99.90;;;;;;5090895;28;20043;-75
2021/12/22 02:15:32;;;;;;;19.67;10.88;;;-1.80;99.90;;;;;;5072637;28;20461;-74
2021/12/22 02:18:01;;;;;;;18.08;10.23;;;-1.70;99.90;;;;;;5077264;28;20153;-75
2021/12/22 02:20:26;;;;;;;18.90;11.27;;;-1.70;99.90;;;;;;5108657;28;20148;-74
2021/12/22 02:22:56;;;;;;;21.15;10.63;;;-1.70;99.90;;;;;;5058674;28;20079;-75
2021/12/22 02:25:31;;;;;;;18.38;10.40;;;-1.70;99.90;;;;;;5086804;28;20057;-74
2021/12/22 02:27:57;;;;;;;17.98;10.27;;;-1.70;99.90;;;;;;5076213;28;20488;-75
2021/12/22 02:30:26;;;;;;;17.70;9.98;;;-1.70;99.90;;;;;;5089381;28;20154;-75
2021/12/22 02:35:38;;;;;;;22.27;10.70;;;-1.80;99.90;;;;;;5090716;28;20046;-75
2021/12/22 02:38:07;;;;;;;19.90;10.20;;;-1.80;99.90;;;;;;5103010;28;20565;-75
2021/12/22 02:40:32;;;;;;;22.73;12.00;;;-1.80;99.90;;;;;;5091170;28;20124;-75
2021/12/22 02:43:05;;;;;;;18.90;10.75;;;-1.80;99.90;;;;;;5090277;28;20109;-75
2021/12/22 02:45:33;;;;;;;24.63;12.02;;;-1.80;99.90;;;;;;5087519;28;20051;-75
2021/12/22 02:48:00;;;;;;;22.70;11.82;;;-1.70;99.90;;;;;;5080737;28;20036;-75
2021/12/22 02:50:25;;;;;;;21.73;11.98;;;-1.70;99.90;;;;;;5090712;28;20521;-75
2021/12/22 02:53:10;;;;;;;22.52;11.80;;;-1.70;99.90;;;;;;5090329;28;20036;-75
2021/12/22 02:55:52;;;;;;;21.45;11.63;;;-1.70;99.90;;;;;;5082269;28;20213;-75
2021/12/22 02:58:40;;;;;;;21.85;12.23;;;-1.70;99.90;;;;;;5071999;28;20495;-75
2021/12/22 03:04:14;;;;;;;22.60;10.77;;;-1.70;99.90;;;;;;5074604;28;20040;-75
2021/12/22 03:06:50;;;;;;;25.83;11.10;;;-1.80;99.90;;;;;;5081380;28;20353;-75
2021/12/22 03:09:22;;;;;;;20.20;10.90;;;-1.80;99.90;;;;;;5110899;28;20517;-75
2021/12/22 03:11:49;;;;;;;20.40;10.43;;;-1.90;99.90;;;;;;5082107;28;20047;-75
2021/12/22 03:14:16;;;;;;;23.08;11.80;;;-1.90;99.90;;;;;;5081315;28;20032;-75
2021/12/22 03:16:42;;;;;;;23.33;11.68;;;-1.90;99.90;;;;;;5072624;28;20047;-75
2021/12/22 03:19:12;;;;;;;19.50;10.80;;;-1.90;99.90;;;;;;5091026;28;20051;-75
2021/12/22 03:21:40;;;;;;;19.13;10.32;;;-1.90;99.90;;;;;;5072663;28;20146;-75
2021/12/22 03:24:06;;;;;;;20.80;10.85;;;-1.90;99.90;;;;;;5090028;28;20036;-75
2021/12/22 03:26:33;;;;;;;21.45;11.07;;;-1.90;99.90;;;;;;5089768;28;20036;-75
2021/12/22 03:28:58;;;;;;;22.23;10.63;;;-1.90;99.90;;;;;;5089174;28;20038;-75
2021/12/22 03:31:24;;;;;;;24.50;12.25;;;-1.90;99.90;;;;;;5090053;28;20119;-75
2021/12/22 03:33:50;;;;;;;22.38;11.43;;;-2.00;99.90;;;;;;5090550;28;20050;-75
2021/12/22 03:36:16;;;;;;;21.08;11.27;;;-1.90;99.90;;;;;;5071801;28;20062;-75
2021/12/22 03:38:42;;;;;;;21.13;11.65;;;-1.90;99.90;;;;;;5087125;28;20036;-75
2021/12/22 03:41:09;;;;;;;21.88;11.13;;;-1.90;99.90;;;;;;5083553;28;20394;-75
2021/12/22 03:43:35;;;;;;;20.35;10.50;;;-1.90;99.90;;;;;;5089578;28;20043;-75
2021/12/22 03:46:02;;;;;;;27.17;12.88;;;-1.90;99.90;;;;;;5071269;28;20394;-75
2021/12/22 03:48:28;;;;;;;19.80;10.82;;;-1.90;99.90;;;;;;5072830;28;20068;-75
2021/12/22 03:50:55;;;;;;;24.80;11.40;;;-2.00;99.90;;;;;;5106512;28;20079;-75
2021/12/22 03:53:21;;;;;;;21.83;11.90;;;-2.00;99.90;;;;;;5088622;28;20051;-75
2021/12/22 03:55:46;;;;;;;20.65;11.05;;;-1.90;99.90;;;;;;5061121;28;20095;-75
2021/12/22 03:58:13;;;;;;;22.65;11.65;;;-1.90;99.90;;;;;;5088188;28;20181;-75
2021/12/22 04:00:40;;;;;;;20.60;11.98;;;-1.80;99.90;;;;;;5071991;28;20450;-75
2021/12/22 04:03:10;;;;;;;23.88;12.25;;;-1.80;99.90;;;;;;5088939;28;20406;-75
2021/12/22 04:05:36;;;;;;;21.70;11.05;;;-1.80;99.90;;;;;;5074938;28;20415;-75
2021/12/22 04:08:01;;;;;;;22.50;12.07;;;-1.80;99.90;;;;;;5088314;28;20028;-76
2021/12/22 04:10:27;;;;;;;24.13;12.95;;;-1.80;99.90;;;;;;5105649;28;20533;-75
2021/12/22 04:12:55;;;;;;;21.13;12.45;;;-1.80;99.90;;;;;;5088605;28;20043;-75
2021/12/22 04:15:23;;;;;;;25.73;12.07;;;-1.80;99.90;;;;;;5085386;28;20051;-74
2021/12/22 04:17:49;;;;;;;27.27;13.63;;;-1.80;99.90;;;;;;5088834;28;20051;-75
2021/12/22 04:20:16;;;;;;;24.42;13.15;;;-1.70;99.90;;;;;;5071549;28;20178;-75
2021/12/22 04:22:41;;;;;;;25.55;12.82;;;-1.80;99.90;;;;;;5088616;28;20071;-75
2021/12/22 04:25:09;;;;;;;25.45;12.20;;;-1.80;99.90;;;;;;5072532;28;20535;-74
2021/12/22 04:27:35;;;;;;;24.05;12.48;;;-1.80;99.90;;;;;;5098372;28;20540;-75
2021/12/22 04:30:02;;;;;;;27.27;13.80;;;-1.80;99.90;;;;;;5108665;27;20040;-75
2021/12/22 04:32:28;;;;;;;24.25;12.07;;;-1.80;99.90;;;;;;5088782;28;20127;-75
2021/12/22 04:34:53;;;;;;;24.35;13.18;;;-1.80;99.90;;;;;;5089914;28;20166;-75
2021/12/22 04:37:19;;;;;;;24.13;12.13;;;-1.80;99.90;;;;;;5070691;28;20504;-75
2021/12/22 04:39:44;;;;;;;22.38;12.25;;;-1.80;99.90;;;;;;5088945;28;20125;-75
2021/12/22 04:42:10;;;;;;;23.02;12.27;;;-1.90;99.90;;;;;;5105442;28;20039;-75
2021/12/22 04:44:36;;;;;;;23.02;11.70;;;-1.90;99.90;;;;;;5070088;28;20052;-75
2021/12/22 04:47:02;;;;;;;23.40;12.45;;;-1.90;99.90;;;;;;5088495;28;20032;-75
2021/12/22 04:49:28;;;;;;;25.45;12.25;;;-1.90;99.90;;;;;;5072825;28;20039;-75
2021/12/22 04:51:55;;;;;;;25.30;13.85;;;-1.90;99.90;;;;;;5093492;28;20123;-75
2021/12/22 04:56:53;;;;;;;25.38;12.20;;;-1.90;99.90;;;;;;5099018;28;20382;-75
2021/12/22 04:59:19;;;;;;;22.50;12.32;;;-1.90;99.90;;;;;;5089252;28;20092;-75
2021/12/22 05:01:44;;;;;;;26.23;12.80;;;-1.90;99.90;;;;;;5073117;28;20028;-75
2021/12/22 05:04:10;;;;;;;26.60;12.23;;;-1.90;99.90;;;;;;5091914;28;20482;-75
2021/12/22 05:06:36;;;;;;;22.80;12.05;;;-1.90;99.90;;;;;;5104802;28;20040;-75
2021/12/22 05:09:06;;;;;;;24.02;12.70;;;-1.90;99.90;;;;;;5071008;28;20040;-75
2021/12/22 05:11:32;;;;;;;21.98;11.25;;;-1.90;99.90;;;;;;5070640;28;20528;-75
2021/12/22 05:13:59;;;;;;;24.70;13.95;;;-1.90;99.90;;;;;;5069029;28;20036;-75
2021/12/22 05:16:25;;;;;;;23.33;12.77;;;-1.90;99.90;;;;;;5087817;28;20036;-76
2021/12/22 05:21:18;;;;;;;23.40;12.80;;;-1.90;99.90;;;;;;5087985;28;20493;-75
2021/12/22 05:23:43;;;;;;;24.48;11.63;;;-1.90;99.90;;;;;;5080645;28;20032;-75
2021/12/22 05:26:09;;;;;;;23.15;12.27;;;-1.90;99.90;;;;;;5105460;28;20039;-75
2021/12/22 05:28:34;;;;;;;23.23;12.68;;;-1.90;99.90;;;;;;5092431;28;20040;-75
2021/12/22 05:31:00;;;;;;;24.30;13.18;;;-1.90;99.90;;;;;;5109797;27;20408;-75
2021/12/22 05:33:26;;;;;;;25.67;11.93;;;-1.90;99.90;;;;;;5102502;28;20050;-75
2021/12/22 05:35:51;;;;;;;24.13;12.45;;;-1.90;99.90;;;;;;5103515;28;20051;-76
2021/12/22 05:38:17;;;;;;;24.15;12.65;;;-1.90;99.90;;;;;;5104701;28;20127;-75
2021/12/22 05:40:43;;;;;;;20.25;10.98;;;-1.90;99.90;;;;;;5094814;28;20122;-75
2021/12/22 05:43:08;;;;;;;24.90;13.63;;;-1.90;99.90;;;;;;5075760;28;20074;-75
2021/12/22 05:45:34;;;;;;;24.58;12.95;;;-1.90;99.90;;;;;;5077524;28;20043;-75
2021/12/22 05:48:00;;;;;;;25.98;12.30;;;-1.90;99.90;;;;;;5087659;28;20032;-75
2021/12/22 05:50:26;;;;;;;28.92;12.90;;;-2.00;99.90;;;;;;5072763;28;20055;-75
2021/12/22 05:52:52;;;;;;;23.88;12.60;;;-1.90;99.90;;;;;;5090112;28;20228;-75
2021/12/22 05:55:18;;;;;;;23.85;11.32;;;-1.90;99.90;;;;;;5084252;28;20168;-75
2021/12/22 05:57:44;;;;;;;23.77;11.73;;;-1.90;99.90;;;;;;5086003;28;20047;-75
2021/12/22 06:00:10;;;;;;;23.00;11.73;;;-1.90;99.90;;;;;;5070257;28;20036;-75
2021/12/22 06:02:35;;;;;;;25.88;12.50;;;-1.90;99.90;;;;;;5087525;28;20309;-75
2021/12/22 06:05:01;;;;;;;24.13;11.73;;;-1.90;99.90;;;;;;5087400;28;20430;-75
2021/12/22 06:07:26;;;;;;;23.38;12.93;;;-1.90;99.90;;;;;;5070583;28;20032;-75
2021/12/22 06:09:52;;;;;;;25.33;12.35;;;-1.90;99.90;;;;;;5104803;28;20090;-75
2021/12/22 06:12:18;;;;;;;22.85;12.52;;;-1.90;99.90;;;;;;5068988;28;20505;-75
2021/12/22 06:14:43;;;;;;;25.83;12.20;;;-1.90;99.90;;;;;;5069982;28;20043;-75
2021/12/22 06:17:09;;;;;;;25.40;11.73;;;-1.90;99.90;;;;;;5070589;28;20032;-75
2021/12/22 06:19:35;;;;;;;25.08;12.77;;;-1.90;99.90;;;;;;5091033;28;20041;-75
2021/12/22 06:22:00;;;;;;;24.20;12.95;;;-1.90;99.90;;;;;;5081748;28;20124;-75
2021/12/22 06:24:26;;;;;;;23.42;11.52;;;-1.80;99.90;;;;;;5087742;28;20424;-75
2021/12/22 06:26:52;;;;;;;23.35;11.68;;;-1.80;99.90;;;;;;5086117;28;20032;-75
2021/12/22 06:29:18;;;;;;;22.83;11.45;;;-1.90;99.90;;;;;;5086681;28;20036;-75
2021/12/22 06:31:43;;;;;;;23.05;11.93;;;-1.80;99.90;;;;;;5087718;28;20047;-75
2021/12/22 06:34:09;;;;;;;25.15;12.02;;;-1.90;99.90;;;;;;5086852;28;20036;-75
2021/12/22 06:36:35;;;;;;;24.02;11.18;;;-1.90;99.90;;;;;;5079856;28;20039;-75
2021/12/22 06:39:00;;;;;;;24.27;12.02;;;-1.90;99.90;;;;;;5065426;28;20036;-75
2021/12/22 06:41:28;;;;;;;26.02;12.75;;;-1.80;99.90;;;;;;5085627;28;20040;-76
2021/12/22 06:43:53;;;;;;;25.80;11.70;;;-1.80;99.90;;;;;;5103531;28;20035;-75
2021/12/22 06:46:19;;;;;;;24.13;12.35;;;-1.80;99.90;;;;;;5090079;28;20029;-77
2021/12/22 06:48:44;;;;;;;24.80;12.45;;;-1.80;99.90;;;;;;5084545;28;20036;-76
2021/12/22 06:51:10;;;;;;;23.23;11.73;;;-1.80;99.90;;;;;;5070876;28;20028;-76
2021/12/22 06:53:36;;;;;;;22.25;12.25;;;-1.80;99.90;;;;;;5085929;28;20123;-76
2021/12/22 06:56:03;;;;;;;28.70;13.48;;;-1.80;99.90;;;;;;5071359;28;20504;-76
2021/12/22 06:58:28;;;;;;;27.75;13.88;;;-1.80;99.90;;;;;;5073623;28;20036;-76
2021/12/22 07:00:55;;;;;;;26.10;14.02;;;-1.80;99.90;;;;;;5096091;28;20043;-77
2021/12/22 07:03:20;;;;;;;28.98;14.82;;;-1.80;99.90;;;;;;5083628;28;20277;-77
2021/12/22 07:05:46;;;;;;;25.20;14.68;;;-1.80;99.90;;;;;;5070066;28;20162;-77
2021/12/22 07:08:12;;;;;;;24.95;13.75;;;-1.80;99.90;;;;;;5104958;28;20185;-77
2021/12/22 07:10:37;;;;;;;27.20;13.40;;;-1.80;99.90;;;;;;5091853;28;20048;-77
2021/12/22 07:13:04;;;;;;;28.30;13.85;;;-1.80;99.90;;;;;;5071789;28;20528;-77
2021/12/22 07:15:30;;;;;;;24.80;12.80;;;-1.80;99.90;;;;;;5081833;28;20057;-76
2021/12/22 07:17:56;;;;;;;25.08;13.90;;;-1.80;99.90;;;;;;5085746;28;20113;-76
2021/12/22 07:20:22;;;;;;;29.00;15.60;;;-1.80;99.90;;;;;;5088874;28;20083;-77
2021/12/22 07:22:48;;;;;;;26.17;14.63;;;-1.80;99.90;;;;;;5105923;28;20028;-76
2021/12/22 07:25:18;;;;;;;23.77;12.07;;;-1.80;99.90;;;;;;5083759;28;20393;-76
2021/12/22 07:27:44;;;;;;;26.10;12.20;;;-1.80;99.90;;;;;;5070937;28;20055;-76
2021/12/22 07:30:11;;;;;;;22.75;12.85;;;-1.80;99.90;;;;;;5081099;28;20040;-76
2021/12/22 07:32:37;;;;;;;23.77;12.50;;;-1.80;99.90;;;;;;5081401;28;20044;-77
2021/12/22 07:35:24;;;;;;;27.25;13.48;;;-1.80;99.90;;;;;;5105195;28;20055;-77
2021/12/22 07:38:24;;;;;;;25.23;13.15;;;-1.80;99.90;;;;;;5097640;28;20123;-77
2021/12/22 07:40:56;;;;;;;27.55;12.60;;;-1.80;99.90;;;;;;5088220;28;20040;-77
2021/12/22 07:43:22;;;;;;;27.23;12.48;;;-1.80;99.90;;;;;;5072730;28;20028;-77
2021/12/22 07:45:48;;;;;;;25.48;13.02;;;-1.80;99.90;;;;;;5089630;28;20442;-77
2021/12/22 07:48:14;;;;;;;25.73;11.95;;;-1.80;99.90;;;;;;5073081;28;20093;-77
2021/12/22 07:50:41;;;;;;;26.15;13.10;;;-1.80;99.90;;;;;;5073023;28;20039;-76
2021/12/22 07:53:07;;;;;;;26.67;12.43;;;-1.80;99.90;;;;;;5089554;28;20047;-77
2021/12/22 07:55:33;;;;;;;23.63;13.05;;;-1.80;99.90;;;;;;5085729;28;20048;-76
2021/12/22 07:57:59;;;;;;;24.55;11.27;;;-1.80;99.90;;;;;;5106508;28;20056;-77
2021/12/22 08:00:24;;;;;;;27.42;11.70;;;-1.90;99.90;;;;;;5072332;28;20046;-77
2021/12/22 08:02:50;;;;;;;26.77;12.27;;;-1.80;99.90;;;;;;5106969;28;20044;-77
2021/12/22 08:05:15;;;;;;;30.88;12.80;;;-1.80;99.90;;;;;;5106284;27;20040;-76
2021/12/22 08:07:41;;;;;;;27.98;12.15;;;-1.80;99.90;;;;;;5098609;28;20040;-76
2021/12/22 08:10:07;;;;;;;28.98;12.68;;;-1.80;99.90;;;;;;5102006;27;20097;-77
2021/12/22 08:12:33;;;;;;;25.33;11.95;;;-1.80;99.90;;;;;;5089723;28;20062;-76
2021/12/22 08:14:59;;;;;;;25.90;13.13;;;-1.80;99.90;;;;;;5068510;28;20038;-77
2021/12/22 08:17:27;;;;;;;25.60;11.38;;;-1.70;99.90;;;;;;5069237;28;20880;-77
2021/12/22 08:19:54;;;;;;;24.60;12.75;;;-1.70;99.90;;;;;;5088736;28;20051;-76
2021/12/22 08:22:20;;;;;;;25.48;13.13;;;-1.70;99.90;;;;;;5070017;28;20409;-77
2021/12/22 08:24:46;;;;;;;27.00;12.45;;;-1.70;99.90;;;;;;5087302;28;20031;-77
2021/12/22 08:27:12;;;;;;;26.83;13.43;;;-1.70;99.90;;;;;;5088359;28;20459;-76
2021/12/22 08:29:42;;;;;;;24.05;12.35;;;-1.60;99.90;;;;;;5105941;27;20036;-76
2021/12/22 08:32:09;;;;;;;26.58;12.00;;;-1.60;99.90;;;;;;5076124;28;20083;-77
2021/12/22 08:34:38;;;;;;;24.98;11.95;;;-1.60;99.90;;;;;;5067827;28;20092;-77
2021/12/22 08:39:49;;;;;;;25.67;11.93;;;-1.50;99.90;;;;;;5082213;28;20058;-77
2021/12/22 08:42:15;;;;;;;24.17;11.73;;;-1.50;99.90;;;;;;5087569;28;20040;-77
2021/12/22 08:44:41;;;;;;;23.23;11.80;;;-1.50;99.90;;;;;;5087515;28;20508;-77
2021/12/22 08:47:07;;;;;;;26.77;13.45;;;-1.50;99.90;;;;;;5068090;28;20042;-77
2021/12/22 08:49:33;;;;;;;21.10;11.05;;;-1.40;99.90;;;;;;5097141;28;20122;-76
2021/12/22 08:51:59;;;;;;;28.63;13.07;;;-1.40;99.90;;;;;;5079639;28;20037;-76
2021/12/22 08:54:25;;;;;;;26.67;12.77;;;-1.40;99.90;;;;;;5085517;28;20035;-77
2021/12/22 08:56:52;;;;;;;25.08;11.77;;;-1.30;99.90;;;;;;5069100;28;20048;-76
2021/12/22 08:59:18;;;;;;;24.00;11.93;;;-1.30;99.90;;;;;;5067869;28;20047;-76
2021/12/22 09:01:44;;;;;;;24.08;13.52;;;-1.30;99.90;;;;;;5084886;28;20029;-81
2021/12/22 09:04:11;;;;;;;24.90;11.90;;;-1.20;99.90;;;;;;5088727;28;20028;-76
2021/12/22 09:06:36;;;;;;;26.30;12.50;;;-1.20;99.90;;;;;;5083747;28;20039;-75
2021/12/22 09:09:07;;;;;;;23.42;11.35;;;-1.20;99.90;;;;;;5103711;27;20028;-75
2021/12/22 09:11:33;;;;;;;24.88;11.95;;;-1.20;99.90;;;;;;5088420;28;20101;-75
2021/12/22 09:13:59;;;;;;;21.40;11.52;;;-1.10;99.90;;;;;;5085807;28;20066;-75
2021/12/22 09:16:24;;;;;;;24.83;12.00;;;-1.10;99.90;;;;;;5086596;28;20036;-76
2021/12/22 09:18:50;;;;;;;22.08;11.63;;;-1.10;99.90;;;;;;5106489;27;20047;-83
2021/12/22 09:21:16;;;;;;;23.63;12.55;;;-1.10;99.90;;;;;;5088523;28;20079;-82
2021/12/22 09:23:43;;;;;;;27.60;11.82;;;-1.00;99.90;;;;;;5076761;28;20529;-83
2021/12/22 09:26:09;;;;;;;22.77;12.00;;;-1.00;99.90;;;;;;5088073;28;20081;-83
2021/12/22 09:28:36;;;;;;;25.40;11.52;;;-1.00;99.90;;;;;;5070290;28;20115;-83
2021/12/22 09:31:04;;;;;;;25.48;13.27;;;-1.00;99.90;;;;;;5078166;28;20036;-82
2021/12/22 09:33:30;;;;;;;22.98;12.40;;;-1.00;99.90;;;;;;5073247;28;20044;-82
2021/12/22 09:35:55;;;;;;;25.92;12.85;;;-1.00;99.90;;;;;;5075745;28;20040;-83
2021/12/22 09:38:21;;;;;;;22.55;11.85;;;-0.90;99.90;;;;;;5090874;28;20036;-83
2021/12/22 09:40:47;;;;;;;30.88;13.55;;;-0.90;99.90;;;;;;5088022;28;20041;-83
2021/12/22 09:43:13;;;;;;;29.10;14.18;;;-0.90;99.90;;;;;;5079095;28;20044;-83
2021/12/22 09:45:44;;;;;;;34.75;18.38;;;-0.90;99.90;;;;;;5094031;28;20036;-83
2021/12/22 09:52:16;;;;;;;26.27;12.63;;;-0.80;99.90;;;;;;5083399;28;20044;-83
2021/12/22 09:53:46;;;;;;;22.38;11.32;;;-0.80;99.90;;;;;;5085203;28;20040;-83
2021/12/22 09:56:16;;;;;;;24.45;14.68;;;-0.80;99.90;;;;;;5065706;28;20050;-83
2021/12/22 09:58:44;;;;;;;24.65;12.77;;;-0.80;99.90;;;;;;5069760;28;20497;-83
2021/12/22 10:01:11;;;;;;;26.63;13.02;;;-0.80;99.90;;;;;;5069910;28;20479;-83
2021/12/22 10:03:38;;;;;;;27.98;12.73;;;-0.80;99.90;;;;;;5071720;28;20122;-82
2021/12/22 10:06:04;;;;;;;26.67;14.00;;;-0.80;99.90;;;;;;5086171;28;20116;-85
2021/12/22 10:08:31;;;;;;;21.92;12.20;;;-0.80;99.90;;;;;;5092201;28;20059;-83
2021/12/22 10:11:07;;;;;;;21.17;11.80;;;-0.70;99.90;;;;;;5077755;28;20039;-84
2021/12/22 10:13:33;;;;;;;21.98;12.52;;;-0.70;99.90;;;;;;5101870;28;20480;-83
2021/12/22 10:16:08;;;;;;;19.08;12.05;;;-0.70;99.90;;;;;;5073380;28;20039;-84
2021/12/22 10:18:34;;;;;;;21.77;11.48;;;-0.70;99.90;;;;;;5075797;28;20067;-82
2021/12/22 10:21:13;;;;;;;21.13;11.18;;;-0.70;99.90;;;;;;5076886;28;20079;-83
2021/12/22 10:23:49;;;;;;;20.05;12.02;;;-0.70;99.90;;;;;;5078398;28;20110;-83
2021/12/22 10:26:18;;;;;;;23.95;11.90;;;-0.70;99.90;;;;;;5090725;28;20044;-83
2021/12/22 10:29:05;;;;;;;24.25;11.38;;;-0.60;99.90;;;;;;5062507;28;20135;-83
2021/12/22 10:31:39;;;;;;;19.27;10.88;;;-0.60;99.90;;;;;;5078115;28;20031;-83
2021/12/22 10:34:08;;;;;;;24.13;11.45;;;-0.60;99.90;;;;;;5093523;28;20040;-82
2021/12/22 10:36:52;;;;;;;22.40;11.73;;;-0.60;99.90;;;;;;5080307;28;20362;-83
2021/12/22 10:39:20;;;;;;;20.08;11.07;;;-0.60;99.90;;;;;;5075348;28;20028;-83
2021/12/22 10:41:45;;;;;;;24.65;11.40;;;-0.50;99.90;;;;;;5096878;28;20497;-83
2021/12/22 10:44:11;;;;;;;24.27;11.40;;;-0.50;99.90;;;;;;5081544;28;20050;-82
2021/12/22 10:46:37;;;;;;;22.58;12.45;;;-0.50;99.90;;;;;;5077046;28;20555;-83
2021/12/22 10:49:15;;;;;;;21.45;11.10;;;-0.50;99.90;;;;;;5079422;28;20063;-84
2021/12/22 10:51:43;;;;;;;22.92;12.05;;;-0.50;99.90;;;;;;5103229;28;20296;-82
2021/12/22 10:54:12;;;;;;;21.65;11.85;;;-0.50;99.90;;;;;;5087098;28;20036;-83
2021/12/22 10:56:46;;;;;;;23.45;10.95;;;-0.40;99.90;;;;;;5078715;28;20564;-83
2021/12/22 10:59:17;;;;;;;22.27;11.60;;;-0.40;99.90;;;;;;5075196;28;20028;-83
2021/12/22 11:01:52;;;;;;;19.60;10.52;;;-0.40;99.90;;;;;;5076392;28;20035;-83
2021/12/22 11:04:28;;;;;;;19.48;10.50;;;-0.40;99.90;;;;;;5090778;28;20595;-83
2021/12/22 11:06:56;;;;;;;23.20;11.75;;;-0.40;99.90;;;;;;5074732;28;20177;-84
2021/12/22 11:09:23;;;;;;;23.60;12.00;;;-0.30;99.90;;;;;;5079027;28;20044;-83
2021/12/22 11:11:55;;;;;;;24.50;11.95;;;-0.30;99.90;;;;;;5079891;28;20040;-83
2021/12/22 11:14:24;;;;;;;20.13;11.75;;;-0.30;99.90;;;;;;5066491;28;20047;-83
2021/12/22 11:16:50;;;;;;;25.13;12.05;;;-0.30;99.90;;;;;;5096834;28;20044;-83
2021/12/22 11:19:16;;;;;;;26.52;13.32;;;-0.30;99.90;;;;;;5066498;28;20058;-83
2021/12/22 11:22:00;;;;;;;22.40;11.43;;;-0.30;99.90;;;;;;5078034;28;20048;-83
2021/12/22 11:24:27;;;;;;;24.88;12.20;;;-0.30;99.90;;;;;;5066661;28;20060;-83
2021/12/22 11:26:54;;;;;;;23.00;11.73;;;-0.20;99.90;;;;;;5099184;28;20044;-83
2021/12/22 11:29:21;;;;;;;23.55;12.13;;;-0.20;99.90;;;;;;5062212;28;20036;-83
2021/12/22 11:31:48;;;;;;;21.40;11.50;;;-0.20;99.90;;;;;;5083340;28;20038;-83
2021/12/22 11:34:16;;;;;;;25.75;12.05;;;-0.20;99.90;;;;;;5070137;28;20038;-83
2021/12/22 11:36:44;;;;;;;22.65;12.23;;;-0.10;99.90;;;;;;5084669;28;20035;-83
2021/12/22 11:39:09;;;;;;;22.75;12.20;;;-0.20;99.90;;;;;;5095217;28;20215;-82
2021/12/22 11:41:43;;;;;;;20.67;11.27;;;-0.10;99.90;;;;;;5095431;28;20247;-83
2021/12/22 11:44:12;;;;;;;19.48;10.07;;;-0.10;99.90;;;;;;5081650;28;20088;-84
2021/12/22 11:46:39;;;;;;;23.23;11.40;;;-0.10;99.90;;;;;;5093407;27;20037;-83
2021/12/22 11:49:05;;;;;;;26.25;12.30;;;-0.10;99.90;;;;;;5068764;28;20497;-83
2021/12/22 11:51:34;;;;;;;19.25;11.32;;;-0.10;99.90;;;;;;5095866;28;20489;-83
2021/12/22 11:54:07;;;;;;;23.65;11.38;;;-0.10;99.90;;;;;;5066563;28;20028;-83
2021/12/22 11:56:46;;;;;;;24.00;11.07;;;-0.10;99.90;;;;;;5077136;28;20448;-84
2021/12/22 11:59:30;;;;;;;20.25;10.82;;;-0.10;99.90;;;;;;5079715;28;20165;-84
2021/12/22 12:02:17;;;;;;;22.75;12.02;;;-0.10;99.90;;;;;;5079963;28;20051;-87
2021/12/22 12:04:42;;;;;;;26.40;11.45;;;-0.10;99.90;;;;;;5065831;28;20032;-83
2021/12/22 12:07:08;;;;;;;21.80;11.73;;;-0.10;99.90;;;;;;5068596;28;20350;-84
2021/12/22 12:09:34;;;;;;;18.95;10.38;;;-0.10;99.90;;;;;;5066005;28;20100;-83
2021/12/22 12:12:04;;;;;;;22.50;11.18;;;-0.10;99.90;;;;;;5083438;28;20048;-83
2021/12/22 12:14:35;;;;;;;24.42;12.60;;;-0.10;99.90;;;;;;5099631;28;20493;-84
2021/12/22 12:23:28;;;;;;;19.63;12.30;;;-0.10;99.90;;;;;;5083712;28;19935;-84
2021/12/22 12:25:58;;;;;;;25.77;11.32;;;-0.10;99.90;;;;;;5078722;28;20039;-84
2021/12/22 12:28:25;;;;;;;22.55;11.85;;;-0.10;99.90;;;;;;5088009;28;20067;-83
2021/12/22 12:30:59;;;;;;;21.35;11.65;;;-0.10;99.90;;;;;;5070436;28;20062;-85
2021/12/22 12:33:29;;;;;;;22.80;11.65;;;-0.10;99.90;;;;;;5100449;27;20032;-84
2021/12/22 12:35:59;;;;;;;21.50;11.95;;;0.00;99.90;;;;;;5073251;28;20114;-83
2021/12/22 12:38:32;;;;;;;20.40;11.20;;;0.00;99.90;;;;;;5096497;28;20096;-83
2021/12/22 12:40:58;;;;;;;21.92;11.13;;;0.00;99.90;;;;;;5085481;28;20556;-83
2021/12/22 12:43:54;;;;;;;21.80;12.55;;;0.00;99.90;;;;;;5068945;28;20115;-83
2021/12/22 12:46:20;;;;;;;25.52;12.23;;;0.00;99.90;;;;;;5101264;28;20078;-83
2021/12/22 12:48:47;;;;;;;20.65;11.35;;;0.00;99.90;;;;;;5073858;28;20063;-83
2021/12/22 12:51:29;;;;;;;20.13;11.35;;;0.10;99.90;;;;;;5089105;28;20032;-83
2021/12/22 12:53:59;;;;;;;22.55;11.88;;;0.00;99.90;;;;;;5096338;28;20035;-93
2021/12/22 12:56:33;;;;;;;21.63;12.18;;;0.00;99.90;;;;;;5071935;28;20397;-82
2021/12/22 12:59:03;;;;;;;21.48;12.10;;;0.00;99.90;;;;;;5077950;28;20046;-83
2021/12/22 13:01:47;;;;;;;19.38;10.32;;;0.00;99.90;;;;;;5083967;28;20047;-84
2021/12/22 13:04:39;;;;;;;19.55;11.15;;;0.00;99.90;;;;;;5086061;28;20036;-84